Time;durP1;ratioP1;P1;durP2;ratioP2;P2;SDS_P1;SDS_P2;PMS_P1;PMS_P2;Temp;Humidity;BMP_temperature;BMP_pressure;BME280_temperature;BME280_humidity;BME280_pressure;Samples;Min_cycle;Max_cycle;Signal;HPM_P1;HPM_P2
2022/07/09 00:01:48;;;;;;;3.90;1.30;;;;;;;13.26;79.48;100000.85;1656850;85;21569;-67
2022/07/09 00:04:14;;;;;;;4.00;1.37;;;;;;;13.28;79.59;100005.09;1678191;84;21045;-67
2022/07/09 00:06:41;;;;;;;3.33;1.40;;;;;;;13.33;79.68;100004.81;1661210;86;20950;-67
2022/07/09 00:09:08;;;;;;;3.37;1.20;;;;;;;13.37;79.80;99998.50;1645586;85;22127;-67
2022/07/09 00:11:34;;;;;;;4.20;2.00;;;;;;;13.42;79.84;99995.16;1687894;83;21648;-67
2022/07/09 00:14:01;;;;;;;5.15;1.50;;;;;;;13.45;79.95;99998.92;1685180;84;21017;-68
2022/07/09 00:16:28;;;;;;;2.37;1.20;;;;;;;13.49;80.05;99994.34;1684798;84;21595;-67
2022/07/09 00:18:54;;;;;;;4.37;1.40;;;;;;;13.54;80.09;99990.55;1657655;85;21113;-67
2022/07/09 00:21:21;;;;;;;2.97;1.50;;;;;;;13.56;80.18;99987.38;1688105;84;20998;-67
2022/07/09 00:23:47;;;;;;;1.97;0.93;;;;;;;13.59;80.23;99987.20;1681481;84;21635;-67
2022/07/09 00:26:14;;;;;;;6.03;1.20;;;;;;;13.62;80.38;99985.72;1682508;84;20978;-67
2022/07/09 00:28:41;;;;;;;5.23;1.47;;;;;;;13.63;80.44;99976.91;1683900;84;21044;-67
2022/07/09 00:31:08;;;;;;;2.98;1.30;;;;;;;13.63;80.54;99972.97;1684573;84;21487;-67
2022/07/09 00:33:34;;;;;;;4.00;1.63;;;;;;;13.65;80.69;99972.42;1679511;84;21435;-67
2022/07/09 00:36:01;;;;;;;2.10;1.23;;;;;;;13.68;80.72;99970.09;1677080;84;21042;-67
2022/07/09 00:38:27;;;;;;;2.47;1.30;;;;;;;13.72;80.81;99972.08;1676367;84;21010;-67
2022/07/09 00:40:54;;;;;;;4.37;1.50;;;;;;;13.75;80.92;99971.90;1676147;84;21534;-67
2022/07/09 00:43:22;;;;;;;3.90;1.37;;;;;;;13.77;80.95;99967.42;1678807;84;21019;-68
2022/07/09 00:45:50;;;;;;;4.90;1.35;;;;;;;13.79;81.03;99969.03;1679744;84;21440;-67
2022/07/09 00:48:19;;;;;;;4.25;1.22;;;;;;;13.81;81.05;99970.27;1682378;84;21090;-67
2022/07/09 00:50:46;;;;;;;3.47;1.50;;;;;;;13.84;81.18;99966.16;1682203;84;21025;-68
2022/07/09 00:53:16;;;;;;;2.65;1.05;;;;;;;13.85;81.25;99967.83;1687384;83;21625;-67
2022/07/09 00:55:47;;;;;;;3.10;1.00;;;;;;;13.87;81.37;99968.60;1685233;83;20977;-67
2022/07/09 00:58:16;;;;;;;3.52;1.27;;;;;;;13.89;81.42;99958.84;1681428;84;21183;-67
2022/07/09 01:00:44;;;;;;;3.58;1.55;;;;;;;13.90;81.46;99956.61;1664026;84;21013;-67
2022/07/09 01:03:11;;;;;;;2.85;1.15;;;;;;;13.92;81.55;99953.44;1641788;85;20949;-67
2022/07/09 01:05:37;;;;;;;6.70;1.22;;;;;;;13.92;81.68;99954.75;1655717;84;21144;-67
2022/07/09 01:08:05;;;;;;;5.17;1.20;;;;;;;13.93;81.70;99947.24;1674637;83;21048;-67
2022/07/09 01:10:33;;;;;;;2.72;0.85;;;;;;;13.92;81.72;99952.12;1674750;84;21098;-67
2022/07/09 01:13:02;;;;;;;2.22;0.93;;;;;;;13.91;81.73;99948.27;1671601;84;20965;-67
2022/07/09 01:15:29;;;;;;;2.60;0.95;;;;;;;13.88;81.82;99942.25;1671300;84;20980;-67
2022/07/09 01:17:57;;;;;;;3.00;0.90;;;;;;;13.85;81.83;99940.27;1656668;84;21087;-67
2022/07/09 01:20:31;;;;;;;1.95;1.00;;;;;;;13.85;81.79;99936.34;1680445;84;21141;-67
2022/07/09 01:22:59;;;;;;;4.35;1.42;;;;;;;13.84;81.96;99939.91;1675386;83;21123;-67
2022/07/09 01:25:29;;;;;;;;;;;;;;;13.84;82.11;99933.34;1677431;84;21140;-67
2022/07/09 01:27:55;;;;;;;4.87;1.02;;;;;;;13.85;82.27;99923.22;1674970;84;20092;-67
2022/07/09 01:30:27;;;;;;;3.83;1.00;;;;;;;13.88;82.31;99919.94;1682931;84;20924;-67
2022/07/09 01:32:55;;;;;;;3.00;0.85;;;;;;;13.92;82.34;99918.00;1680326;83;20998;-67
2022/07/09 01:35:21;;;;;;;2.20;0.90;;;;;;;13.96;82.41;99914.72;1683870;83;21176;-67
2022/07/09 01:37:48;;;;;;;2.90;0.85;;;;;;;14.01;82.33;99916.15;1676685;83;21769;-67
2022/07/09 01:40:15;;;;;;;2.40;0.88;;;;;;;14.05;82.39;99920.27;1663809;84;20994;-67
2022/07/09 01:42:41;;;;;;;4.20;1.20;;;;;;;14.09;82.37;99918.33;1663402;84;21301;-67
2022/07/09 01:45:09;;;;;;;2.58;0.75;;;;;;;14.11;82.24;99911.19;1676827;84;21048;-67
2022/07/09 01:47:36;;;;;;;2.75;0.70;;;;;;;14.13;82.44;99913.73;1647968;85;21109;-66
2022/07/09 01:50:04;;;;;;;2.00;0.95;;;;;;;14.12;82.40;99905.50;1686073;84;26773;-67
2022/07/09 01:52:31;;;;;;;4.78;0.95;;;;;;;14.10;82.45;99906.41;1695397;84;21507;-66
2022/07/09 01:54:58;;;;;;;1.62;0.70;;;;;;;14.07;82.51;99898.72;1669127;85;21029;-67
2022/07/09 01:57:24;;;;;;;2.83;1.22;;;;;;;14.03;82.55;99909.48;1666518;84;20992;-66
2022/07/09 01:59:51;;;;;;;5.90;1.12;;;;;;;13.99;82.57;99906.19;1670266;84;21545;-67
2022/07/09 02:02:18;;;;;;;3.83;0.90;;;;;;;13.95;82.63;99898.13;1693655;83;20964;-67
2022/07/09 02:04:45;;;;;;;2.22;1.02;;;;;;;13.92;82.71;99898.31;1694325;84;21025;-67
2022/07/09 02:07:13;;;;;;;;;;;;;;;13.91;82.78;99891.36;1671588;84;21589;-67
2022/07/09 02:09:40;;;;;;;3.20;1.17;;;;;;;13.90;82.88;99894.92;1666816;84;20142;-67
2022/07/09 02:12:08;;;;;;;3.92;0.88;;;;;;;13.90;82.89;99887.05;1667333;85;21124;-66
2022/07/09 02:14:35;;;;;;;1.35;0.68;;;;;;;13.90;82.99;99883.59;1669436;84;20964;-67
2022/07/09 02:17:02;;;;;;;2.83;1.00;;;;;;;13.91;83.06;99878.23;1650741;84;20976;-66
2022/07/09 02:19:29;;;;;;;3.62;1.10;;;;;;;13.94;83.14;99875.89;1656533;84;21023;-67
2022/07/09 02:21:55;;;;;;;2.42;1.07;;;;;;;13.98;83.11;99875.64;1690111;83;21001;-67
2022/07/09 02:26:05;;;;;;;3.90;1.12;;;;;;;14.03;83.20;99867.03;1863452;76;22629;-65
2022/07/09 02:28:31;;;;;;;3.17;0.77;;;;;;;14.00;83.19;99867.21;1834227;77;20966;-65
2022/07/09 02:30:58;;;;;;;4.67;1.10;;;;;;;14.03;83.15;99867.03;1828707;77;21139;-66
2022/07/09 02:33:25;;;;;;;2.87;1.13;;;;;;;14.04;83.22;99863.45;1828768;77;22518;-65
2022/07/09 02:35:51;;;;;;;4.00;0.80;;;;;;;14.08;83.26;99861.02;1829397;77;21029;-65
2022/07/09 02:38:21;;;;;;;4.27;1.53;;;;;;;14.14;83.37;99862.90;1832367;75;20974;-65
2022/07/09 02:40:46;;;;;;;5.42;0.90;;;;;;;14.19;83.33;99858.22;1831746;77;20957;-65
2022/07/09 02:43:13;;;;;;;1.87;0.80;;;;;;;14.23;83.30;99859.75;1830760;77;22130;-65
2022/07/09 02:45:39;;;;;;;5.17;0.87;;;;;;;14.31;83.37;99853.53;1829670;77;21115;-65
2022/07/09 02:48:06;;;;;;;2.05;0.90;;;;;;;14.40;83.41;99860.88;1829585;77;21014;-65
2022/07/09 02:50:33;;;;;;;3.27;1.17;;;;;;;14.49;83.37;99856.36;1829456;76;21515;-65
2022/07/09 02:53:00;;;;;;;2.92;1.27;;;;;;;14.56;83.36;99851.59;1829704;77;21253;-65
2022/07/09 02:55:26;;;;;;;2.72;0.95;;;;;;;14.70;83.46;99859.50;1827995;77;21936;-66
2022/07/09 02:57:53;;;;;;;2.98;1.00;;;;;;;14.83;83.20;99859.56;1826519;77;20894;-66
2022/07/09 03:00:20;;;;;;;6.77;1.53;;;;;;;14.87;83.20;99855.81;1829924;77;21601;-66
2022/07/09 03:02:46;;;;;;;5.30;1.27;;;;;;;14.90;83.18;99850.36;1831637;77;21020;-66
2022/07/09 03:05:13;;;;;;;2.52;0.80;;;;;;;14.91;83.14;99852.04;1830900;77;20990;-65
2022/07/09 03:07:40;;;;;;;2.87;0.90;;;;;;;14.96;83.17;99850.45;1832391;77;27391;-66
2022/07/09 03:10:08;;;;;;;3.10;0.80;;;;;;;15.05;83.17;99850.33;1829701;77;20977;-66
2022/07/09 03:12:34;;;;;;;2.05;0.95;;;;;;;15.20;83.52;99846.70;1830715;77;21692;-66
2022/07/09 03:15:01;;;;;;;2.75;1.02;;;;;;;15.61;83.62;99845.80;1830864;77;21539;-66
2022/07/09 03:17:28;;;;;;;5.70;1.23;;;;;;;15.71;82.17;99829.81;1835512;77;20943;-66
2022/07/09 03:19:55;;;;;;;4.55;1.00;;;;;;;15.71;82.17;99829.81;1830815;77;22096;-66
2022/07/09 03:22:21;;;;;;;3.58;1.02;;;;;;;15.74;82.23;99846.71;1828085;77;20877;-66
2022/07/09 03:24:48;;;;;;;3.60;1.45;;;;;;;15.67;82.32;99850.65;1831505;77;20914;-67
2022/07/09 03:27:14;;;;;;;3.52;1.02;;;;;;;15.89;83.14;99850.94;1834615;77;21030;-66
2022/07/09 03:29:41;;;;;;;5.40;1.42;;;;;;;16.85;83.67;99839.11;1836336;77;21455;-66
2022/07/09 03:32:08;;;;;;;1.32;0.57;;;;;;;17.52;82.69;99836.00;1838676;76;21736;-67
2022/07/09 03:34:35;;;;;;;;;;;;;;;17.69;81.61;99835.57;1839758;77;20965;-66
2022/07/09 03:37:02;;;;;;;6.12;1.00;;;;;;;18.05;81.88;99835.94;1840003;77;20075;-66
2022/07/09 03:39:28;;;;;;;5.53;1.07;;;;;;;18.31;81.14;99838.37;1829602;77;20998;-67
2022/07/09 03:41:55;;;;;;;7.00;1.37;;;;;;;18.28;80.58;99837.28;1832779;77;21508;-66
2022/07/09 03:44:21;;;;;;;3.47;1.15;;;;;;;17.94;80.17;99829.31;1837546;77;21413;-67
2022/07/09 03:46:48;;;;;;;8.33;1.52;;;;;;;17.61;80.14;99838.78;1835708;77;20909;-66
2022/07/09 03:49:15;;;;;;;5.90;1.00;;;;;;;17.34;80.20;99830.29;1835110;77;20969;-66
2022/07/09 03:51:43;;;;;;;3.17;1.57;;;;;;;17.12;80.27;99829.70;1838501;77;21448;-66
2022/07/09 03:54:10;;;;;;;3.87;1.32;;;;;;;16.88;80.13;99828.34;1836308;76;20945;-66
2022/07/09 03:56:37;;;;;;;3.20;1.27;;;;;;;16.64;80.13;99826.48;1837608;77;21665;-65
2022/07/09 03:59:04;;;;;;;1.95;0.88;;;;;;;16.53;80.38;99823.76;1832359;77;21016;-66
2022/07/09 04:01:30;;;;;;;5.45;1.22;;;;;;;16.58;80.61;99820.33;1834901;77;20930;-65
2022/07/09 04:03:57;;;;;;;3.40;1.10;;;;;;;16.93;81.04;99820.95;1834865;77;20984;-65
2022/07/09 04:06:25;;;;;;;17.50;1.87;;;;;;;17.43;80.91;99813.77;1836838;76;20969;-66
2022/07/09 04:08:52;;;;;;;4.95;1.20;;;;;;;17.85;80.27;99814.17;1834957;77;24117;-66
2022/07/09 04:11:19;;;;;;;1.98;1.00;;;;;;;18.08;79.64;99811.92;1835634;77;20973;-65
2022/07/09 04:13:45;;;;;;;3.65;1.10;;;;;;;18.37;79.75;99806.16;1835974;77;21025;-66
2022/07/09 04:16:12;;;;;;;4.42;1.52;;;;;;;18.92;79.82;99812.40;1786746;79;21490;-66
2022/07/09 04:18:43;;;;;;;9.50;2.05;;;;;;;19.44;79.30;99808.64;1775268;79;20985;-66
2022/07/09 04:21:08;;;;;;;3.65;1.15;;;;;;;19.84;79.06;99811.46;1768814;79;21650;-67
2022/07/09 04:23:34;;;;;;;5.25;1.45;;;;;;;20.49;78.99;99807.25;1773435;79;21043;-67
2022/07/09 04:26:01;;;;;;;4.45;1.00;;;;;;;20.96;78.54;99801.77;1771280;79;21944;-67
2022/07/09 04:28:28;;;;;;;2.90;1.15;;;;;;;21.34;77.95;99793.50;1767151;80;21311;-68
2022/07/09 04:30:56;;;;;;;8.70;1.55;;;;;;;21.62;77.43;99798.48;1764936;80;20993;-68
2022/07/09 04:33:23;;;;;;;3.55;1.30;;;;;;;21.87;77.02;99796.17;1771290;78;21143;-68
2022/07/09 04:35:50;;;;;;;3.62;1.22;;;;;;;22.17;76.67;99800.44;1769986;79;20999;-68
2022/07/09 04:38:16;;;;;;;5.35;1.80;;;;;;;22.21;75.70;99793.03;1768425;79;20989;-67
2022/07/09 04:40:43;;;;;;;7.00;1.67;;;;;;;21.76;74.34;99796.34;1766609;79;20942;-68
2022/07/09 04:43:10;;;;;;;3.85;1.20;;;;;;;20.93;74.06;99799.88;1768027;80;20986;-67
2022/07/09 04:45:36;;;;;;;5.78;1.40;;;;;;;20.27;74.48;99799.83;1770320;80;21907;-67
2022/07/09 04:48:04;;;;;;;5.60;1.25;;;;;;;19.66;73.94;99801.08;1769281;80;21065;-68
2022/07/09 04:50:30;;;;;;;5.15;1.35;;;;;;;19.02;74.30;99797.95;1768864;80;21705;-68
2022/07/09 04:52:57;;;;;;;4.37;1.52;;;;;;;18.64;74.32;99799.19;1767089;80;20962;-67
2022/07/09 04:55:24;;;;;;;4.33;1.47;;;;;;;18.28;74.29;99808.22;1770301;79;20973;-68
2022/07/09 04:57:51;;;;;;;5.25;1.50;;;;;;;18.23;74.95;99803.76;1778253;79;21059;-66
2022/07/09 05:00:17;;;;;;;5.90;1.45;;;;;;;18.80;75.22;99798.84;1777333;79;20981;-67
2022/07/09 05:02:45;;;;;;;5.55;1.62;;;;;;;18.98;74.53;99807.92;1770703;79;21592;-66
2022/07/09 05:05:13;;;;;;;6.55;2.02;;;;;;;19.55;74.92;99807.27;1768638;79;21018;-67
2022/07/09 05:07:45;;;;;;;9.63;1.92;;;;;;;20.09;74.12;99812.03;1772311;79;21087;-67
2022/07/09 05:10:10;;;;;;;11.10;2.10;;;;;;;20.50;73.62;99810.25;1771842;79;21090;-67
2022/07/09 05:12:37;;;;;;;2.60;1.57;;;;;;;21.06;73.81;99804.45;1780167;79;20986;-67
2022/07/09 05:15:05;;;;;;;7.78;2.02;;;;;;;21.77;73.56;99800.69;1769575;80;21041;-68
2022/07/09 05:17:36;;;;;;;8.45;2.08;;;;;;;22.28;73.00;99804.78;1768670;80;21058;-68
2022/07/09 05:20:06;;;;;;;18.45;2.70;;;;;;;22.33;72.07;99802.53;1801089;78;21498;-67
2022/07/09 05:22:35;;;;;;;6.35;2.17;;;;;;;22.49;71.26;99801.88;1772521;80;22072;-67
2022/07/09 05:25:05;;;;;;;6.35;1.90;;;;;;;22.02;69.58;99800.08;1764865;80;21013;-67
2022/07/09 05:27:31;;;;;;;7.75;2.12;;;;;;;21.23;70.14;99799.78;1803776;78;20978;-67
2022/07/09 05:29:58;;;;;;;;;;;;;;;20.79;70.14;99797.95;1801710;78;20997;-66
2022/07/09 05:32:24;;;;;;;;;;;;;;;20.45;70.19;99797.41;1802782;78;20405;-67
2022/07/09 05:34:51;;;;;;;59.25;33.35;;;;;;;20.16;69.89;99788.48;1778227;78;21097;-67
2022/07/09 05:37:18;;;;;;;10.82;2.90;;;;;;;19.74;69.75;99794.65;1777391;79;21005;-67
2022/07/09 05:40:45;;;;;;;6.33;1.82;;;;;;;19.22;69.70;99797.66;1868080;74;22274;-67
2022/07/09 05:43:12;;;;;;;6.45;2.25;;;;;;;18.86;69.46;99787.77;1843030;76;20970;-67
2022/07/09 05:45:38;;;;;;;33.25;4.22;;;;;;;19.34;69.65;99782.06;1843844;76;22925;-67
2022/07/09 05:48:05;;;;;;;15.03;3.00;;;;;;;20.13;70.34;99789.58;1842032;76;20967;-67
2022/07/09 05:50:32;;;;;;;6.22;2.35;;;;;;;20.78;69.55;99779.50;1843739;76;20962;-67
2022/07/09 05:52:59;;;;;;;9.88;2.40;;;;;;;21.49;69.56;99774.02;1846422;75;21005;-66
2022/07/09 05:56:36;;;;;;;6.03;2.37;;;;;;;22.25;68.26;99767.84;1789393;78;22924;-67
2022/07/09 05:59:03;;;;;;;6.55;2.30;;;;;;;22.56;67.33;99771.87;1775278;80;21569;-67
2022/07/09 06:01:30;;;;;;;10.28;2.67;;;;;;;22.60;67.37;99779.56;1773828;79;21518;-67
2022/07/09 06:03:57;;;;;;;5.58;1.90;;;;;;;22.74;67.67;99777.73;1776933;80;20998;-67
2022/07/09 06:06:24;;;;;;;;;;;;;;;22.56;65.79;99782.52;1775427;80;20989;-66
2022/07/09 06:08:51;;;;;;;7.45;2.20;;;;;;;22.05;65.60;99773.20;1776323;80;20299;-66
2022/07/09 06:11:40;;;;;;;9.93;2.17;;;;;;;21.57;65.66;99770.16;1783730;79;21140;-66
2022/07/09 06:14:06;;;;;;;5.33;1.95;;;;;;;21.04;65.53;99774.54;1664748;84;21510;-66
2022/07/09 06:16:33;;;;;;;6.42;2.70;;;;;;;20.75;64.16;99771.36;1668055;84;28257;-67
2022/07/09 06:19:00;;;;;;;;;;;;;;;20.66;66.11;99770.83;1670066;84;21088;-67
2022/07/09 06:21:26;;;;;;;7.35;2.17;;;;;;;20.86;65.17;99766.89;1679348;84;20207;-67
2022/07/09 06:23:53;;;;;;;6.42;2.35;;;;;;;21.37;65.90;99764.49;1680502;84;21065;-69
2022/07/09 06:26:19;;;;;;;5.33;2.17;;;;;;;22.21;65.39;99763.78;1676796;84;21165;-66
2022/07/09 06:28:47;;;;;;;6.62;2.12;;;;;;;22.80;62.83;99754.53;1674686;84;21062;-68
2022/07/09 06:31:13;;;;;;;6.10;2.10;;;;;;;22.87;63.59;99760.91;1672712;84;21797;-65
2022/07/09 06:33:40;;;;;;;;;;;;;;;22.23;61.60;99753.84;1679773;83;21499;-69
2022/07/09 06:36:07;;;;;;;9.33;2.37;;;;;;;21.61;62.30;99751.61;1672746;84;20217;-68
2022/07/09 06:39:44;;;;;;;5.35;2.12;;;;;;;20.93;61.23;99758.73;1677776;84;21099;-69
2022/07/09 06:41:02;;;;;;;8.10;2.25;;;;;;;20.48;62.33;99763.16;1649545;84;21720;-68
2022/07/09 06:43:29;;;;;;;5.78;2.17;;;;;;;19.98;62.14;99767.05;1626791;87;21090;-69
2022/07/09 06:45:55;;;;;;;4.53;2.17;;;;;;;19.73;62.48;99777.09;1627458;86;21025;-66
2022/07/09 06:48:22;;;;;;;10.68;2.65;;;;;;;19.48;62.60;99769.50;1632637;87;21014;-69
2022/07/09 06:50:49;;;;;;;5.12;1.90;;;;;;;19.35;62.84;99772.31;1627531;87;21088;-67
2022/07/09 06:53:15;;;;;;;8.70;2.33;;;;;;;19.54;62.89;99772.45;1649351;86;21025;-66
2022/07/09 06:55:43;;;;;;;9.18;2.80;;;;;;;20.02;62.98;99763.16;1629871;87;21089;-67
2022/07/09 06:58:10;;;;;;;8.20;2.92;;;;;;;20.07;62.38;99772.39;1647720;85;20969;-67
2022/07/09 07:00:36;;;;;;;8.30;2.52;;;;;;;20.02;61.74;99757.86;1627853;86;21605;-66
2022/07/09 07:03:03;;;;;;;7.50;2.25;;;;;;;19.79;61.79;99768.61;1653660;86;21075;-67
2022/07/09 07:05:30;;;;;;;5.65;1.80;;;;;;;19.58;61.81;99767.77;1649126;85;21022;-68
2022/07/09 07:07:57;;;;;;;6.58;1.87;;;;;;;19.42;62.18;99766.39;1627243;87;21104;-67
2022/07/09 07:10:24;;;;;;;8.03;2.80;;;;;;;19.51;62.20;99767.42;1649005;86;21713;-69
2022/07/09 07:12:51;;;;;;;6.95;2.45;;;;;;;19.63;62.61;99765.55;1615494;88;21033;-69
2022/07/09 07:15:18;;;;;;;6.00;2.25;;;;;;;19.83;62.08;99764.75;1648205;84;21154;-67
2022/07/09 07:17:44;;;;;;;9.20;1.95;;;;;;;19.66;62.02;99767.97;1624013;87;21204;-64
2022/07/09 07:20:11;;;;;;;5.50;2.33;;;;;;;19.39;61.90;99756.05;1624537;87;21524;-65
2022/07/09 07:22:38;;;;;;;9.78;2.60;;;;;;;19.14;62.00;99756.41;1613311;86;21027;-66
2022/07/09 07:25:06;;;;;;;5.58;2.25;;;;;;;19.15;62.09;99762.05;1631606;87;21537;-65
2022/07/09 07:27:32;;;;;;;6.53;2.08;;;;;;;19.57;62.22;99763.42;1633704;86;21164;-70
2022/07/09 07:29:59;;;;;;;6.75;1.72;;;;;;;20.10;62.11;99758.04;1649863;84;21033;-70
2022/07/09 07:32:26;;;;;;;6.05;2.20;;;;;;;20.43;61.76;99745.48;1626669;87;21090;-69
2022/07/09 07:34:52;;;;;;;7.15;2.10;;;;;;;20.61;61.61;99749.17;1624533;87;21078;-67
2022/07/09 07:37:19;;;;;;;7.87;2.02;;;;;;;20.92;61.56;99753.06;1645484;85;21001;-69
2022/07/09 07:39:47;;;;;;;6.30;2.20;;;;;;;21.16;61.23;99754.00;1628982;87;21110;-68
2022/07/09 07:42:15;;;;;;;5.37;2.08;;;;;;;21.39;61.31;99746.61;1629781;87;21152;-66
2022/07/09 07:44:42;;;;;;;6.08;1.70;;;;;;;21.87;60.96;99745.67;1616997;87;21033;-67
2022/07/09 07:47:09;;;;;;;7.45;2.00;;;;;;;21.64;58.92;99752.66;1629302;86;21105;-67
2022/07/09 07:49:36;;;;;;;4.80;1.57;;;;;;;20.90;57.81;99751.06;1634872;86;21052;-66
2022/07/09 07:52:04;;;;;;;10.03;2.50;;;;;;;20.42;58.53;99757.06;1631550;85;21508;-67
2022/07/09 07:54:31;;;;;;;6.08;1.92;;;;;;;20.32;58.92;99760.99;1628022;86;20934;-65
2022/07/09 07:56:58;;;;;;;6.92;1.98;;;;;;;20.20;57.36;99770.86;1632187;86;21042;-65
2022/07/09 07:59:24;;;;;;;7.87;2.33;;;;;;;20.13;58.32;99753.80;1621244;87;21065;-67
2022/07/09 08:01:51;;;;;;;7.28;1.95;;;;;;;20.05;58.33;99749.64;1647569;85;21041;-67
2022/07/09 08:04:18;;;;;;;5.03;1.65;;;;;;;20.18;58.15;99750.27;1646892;84;21466;-64
2022/07/09 08:06:44;;;;;;;5.85;1.80;;;;;;;20.12;57.06;99754.28;1636765;87;21551;-66
2022/07/09 08:09:11;;;;;;;5.55;1.92;;;;;;;20.13;57.43;99760.42;1646059;86;20961;-68
2022/07/09 08:11:38;;;;;;;6.72;1.92;;;;;;;20.30;58.08;99750.51;1652599;85;20997;-69
2022/07/09 08:14:06;;;;;;;4.08;1.60;;;;;;;20.71;58.30;99739.42;1606133;87;21109;-66
2022/07/09 08:16:32;;;;;;;10.30;2.58;;;;;;;20.81;57.85;99743.90;1586857;89;21538;-66
2022/07/09 08:18:59;;;;;;;5.28;1.85;;;;;;;20.60;57.84;99736.89;1606292;88;21141;-66
2022/07/09 08:21:26;;;;;;;6.22;2.15;;;;;;;20.43;57.62;99745.48;1614678;88;21010;-65
2022/07/09 08:24:00;;;;;;;3.35;1.50;;;;;;;20.46;57.96;99731.94;1614187;88;21183;-68
2022/07/09 08:26:23;;;;;;;10.15;1.95;;;;;;;20.71;57.65;99730.14;1604662;88;21093;-68
2022/07/09 08:28:50;;;;;;;5.03;1.70;;;;;;;20.66;57.56;99735.50;1612986;88;21259;-66
2022/07/09 08:31:19;;;;;;;4.47;1.90;;;;;;;20.68;57.29;99735.72;1623914;87;21085;-66
2022/07/09 08:33:46;;;;;;;6.50;1.67;;;;;;;20.62;56.86;99740.25;1596940;89;21065;-66
2022/07/09 08:36:14;;;;;;;4.70;1.20;;;;;;;20.48;57.16;99743.27;1603949;88;21507;-63
2022/07/09 08:38:40;;;;;;;3.83;1.37;;;;;;;20.26;56.34;99745.62;1624484;87;21594;-65
2022/07/09 08:41:07;;;;;;;2.95;1.35;;;;;;;20.03;56.74;99747.63;1622474;87;21080;-66
2022/07/09 08:43:38;;;;;;;6.37;1.30;;;;;;;19.93;56.89;99749.38;1624473;87;21591;-66
2022/07/09 08:46:08;;;;;;;1.98;1.00;;;;;;;20.09;57.08;99749.25;1610709;88;21039;-68
2022/07/09 08:48:36;;;;;;;3.50;1.47;;;;;;;20.41;56.97;99747.41;1584889;88;20998;-68
2022/07/09 08:51:04;;;;;;;4.92;1.62;;;;;;;20.46;56.58;99750.51;1609720;88;21056;-67
2022/07/09 08:53:31;;;;;;;6.55;1.37;;;;;;;20.29;56.58;99747.52;1619112;87;21179;-65
2022/07/09 08:55:58;;;;;;;4.53;1.40;;;;;;;20.16;56.58;99746.90;1607945;88;21033;-65
2022/07/09 08:58:25;;;;;;;5.17;1.42;;;;;;;19.89;56.24;99748.32;1605925;88;21123;-67
2022/07/09 09:00:52;;;;;;;5.72;1.55;;;;;;;19.54;56.55;99747.79;1621249;87;21009;-67
2022/07/09 09:03:19;;;;;;;3.92;1.30;;;;;;;19.29;56.47;99755.13;1608365;88;21586;-66
2022/07/09 09:06:07;;;;;;;5.78;1.40;;;;;;;19.10;57.05;99755.84;1612336;88;21633;-67
2022/07/09 09:08:42;;;;;;;4.90;1.47;;;;;;;19.03;57.04;99756.45;1612353;88;21140;-67
2022/07/09 09:13:44;;;;;;;4.45;1.37;;;;;;;19.21;57.69;99746.98;1845221;75;21957;-66
2022/07/09 09:16:13;;;;;;;4.72;1.17;;;;;;;19.60;57.90;99749.91;1818403;77;20969;-67
2022/07/09 09:18:47;;;;;;;5.22;1.40;;;;;;;20.03;57.97;99751.61;1815595;77;21101;-67
2022/07/09 09:21:16;;;;;;;5.67;1.55;;;;;;;20.21;57.66;99756.63;1809534;77;21402;-66
2022/07/09 09:23:47;;;;;;;3.30;1.20;;;;;;;20.52;58.12;99752.61;1809936;77;20957;-67
2022/07/09 09:26:25;;;;;;;6.22;1.52;;;;;;;20.87;58.22;99752.17;1810553;77;21610;-68
2022/07/09 09:29:00;;;;;;;4.90;1.47;;;;;;;21.31;58.20;99741.13;1812636;77;21801;-66
2022/07/09 09:31:35;;;;;;;5.40;1.35;;;;;;;21.40;57.31;99748.30;1814570;77;21082;-67
2022/07/09 09:34:10;;;;;;;4.22;1.45;;;;;;;20.93;57.36;99750.28;1751931;80;21061;-66
2022/07/09 09:36:40;;;;;;;8.23;1.20;;;;;;;20.67;57.51;99747.32;1759166;79;21072;-66
2022/07/09 09:39:27;;;;;;;7.42;1.30;;;;;;;20.51;57.41;99750.95;1761577;79;21029;-65
2022/07/09 09:42:00;;;;;;;6.97;1.65;;;;;;;20.48;57.94;99748.56;1762005;79;21075;-67
2022/07/09 09:44:39;;;;;;;3.50;1.40;;;;;;;20.48;57.74;99746.75;1760832;79;21148;-67
2022/07/09 09:47:07;;;;;;;1.20;0.90;;;;;;;20.48;57.94;99744.59;1757957;79;22269;-66
2022/07/09 09:49:37;;;;;;;4.03;1.10;;;;;;;20.77;58.16;99749.48;1766414;79;21125;-67
2022/07/09 09:52:07;;;;;;;2.10;1.00;;;;;;;21.07;58.52;99739.75;1765897;79;21023;-66
2022/07/09 09:54:38;;;;;;;3.35;0.90;;;;;;;21.49;57.93;99738.15;1763604;79;21320;-67
2022/07/09 09:57:10;;;;;;;3.58;1.25;;;;;;;21.56;57.85;99740.57;1763035;79;21069;-67
2022/07/09 09:59:39;;;;;;;3.62;1.20;;;;;;;21.41;57.58;99728.72;1762367;79;21463;-67
2022/07/09 10:02:11;;;;;;;3.30;1.12;;;;;;;21.28;57.43;99725.48;1762375;80;21560;-68
2022/07/09 10:04:41;;;;;;;2.52;1.10;;;;;;;21.28;57.70;99728.14;1759547;79;21497;-67
2022/07/09 10:07:32;;;;;;;2.60;1.10;;;;;;;21.21;57.28;99723.39;1757855;80;21054;-64
2022/07/09 10:12:49;;;;;;;6.25;1.32;;;;;;;20.49;56.78;99729.02;1707706;82;20880;-66
2022/07/09 10:15:27;;;;;;;3.12;1.22;;;;;;;20.72;58.06;99725.66;1713948;81;20940;-66
2022/07/09 10:17:56;;;;;;;3.27;0.85;;;;;;;21.10;57.89;99716.90;1711330;82;21000;-65
2022/07/09 10:20:36;;;;;;;4.33;1.27;;;;;;;21.50;58.04;99709.27;1679194;83;21107;-65
2022/07/09 10:23:05;;;;;;;3.33;0.85;;;;;;;21.75;57.06;99720.27;1709250;82;21925;-65
2022/07/09 10:25:50;;;;;;;3.10;0.80;;;;;;;21.80;57.51;99712.70;1707989;81;21033;-66
2022/07/09 10:28:19;;;;;;;1.42;0.70;;;;;;;22.08;57.34;99713.58;1714318;82;21076;-67
2022/07/09 10:30:49;;;;;;;2.17;0.90;;;;;;;22.00;56.83;99716.95;1707549;82;21047;-65
2022/07/09 10:33:31;;;;;;;3.75;1.20;;;;;;;21.40;55.97;99719.09;1706080;81;21513;-64
2022/07/09 10:36:11;;;;;;;2.27;0.98;;;;;;;20.42;56.06;99722.59;1708410;81;22422;-64
2022/07/09 10:38:41;;;;;;;3.10;1.02;;;;;;;19.60;56.72;99728.73;1706533;81;21075;-65
2022/07/09 10:41:11;;;;;;;3.27;0.98;;;;;;;19.15;57.34;99726.32;1681376;81;21008;-66
2022/07/09 10:43:45;;;;;;;2.92;0.95;;;;;;;18.87;57.57;99734.37;1650023;84;21524;-66
2022/07/09 10:46:14;;;;;;;3.83;1.10;;;;;;;18.87;58.07;99729.91;1707231;81;20922;-66
2022/07/09 10:48:45;;;;;;;4.30;1.15;;;;;;;18.98;58.43;99741.78;1717250;82;21138;-67
2022/07/09 10:51:22;;;;;;;8.05;1.37;;;;;;;19.07;58.56;99744.64;1722369;82;20928;-66
2022/07/09 10:53:51;;;;;;;2.90;0.82;;;;;;;19.13;58.69;99734.86;1721400;82;21045;-66
2022/07/09 10:56:24;;;;;;;4.10;1.22;;;;;;;18.98;58.73;99736.48;1689164;83;21052;-66
2022/07/09 10:58:54;;;;;;;2.10;0.95;;;;;;;19.07;59.02;99731.41;1721512;82;21629;-68
2022/07/09 11:01:27;;;;;;;1.55;0.70;;;;;;;19.10;58.93;99733.80;1709873;82;21130;-63
2022/07/09 11:03:58;;;;;;;1.55;0.80;;;;;;;19.09;59.19;99742.72;1708072;82;21018;-66
2022/07/09 11:06:26;;;;;;;4.55;1.30;;;;;;;18.98;59.34;99747.56;1726309;81;21008;-64
2022/07/09 11:08:53;;;;;;;2.30;1.00;;;;;;;18.85;59.27;99744.23;1684210;83;21099;-65
2022/07/09 11:11:24;;;;;;;;;;;;;;;18.71;59.68;99744.02;1711464;82;20963;-65
2022/07/09 11:17:09;;;;;;;2.00;0.93;;;;;;;18.85;59.80;99741.13;1715414;82;21573;-66
2022/07/09 11:19:37;;;;;;;3.62;1.12;;;;;;;18.97;59.89;99730.84;1729061;81;21059;-64
2022/07/09 11:22:07;;;;;;;1.85;0.70;;;;;;;19.04;59.94;99731.66;1732081;81;21621;-65
2022/07/09 11:24:37;;;;;;;1.40;0.70;;;;;;;19.49;60.14;99728.80;1699842;81;21049;-65
2022/07/09 11:27:06;;;;;;;3.02;1.00;;;;;;;19.96;60.05;99721.29;1728833;81;21204;-66
2022/07/09 11:29:37;;;;;;;1.52;0.80;;;;;;;20.53;59.84;99718.53;1710547;81;21090;-65
2022/07/09 11:32:24;;;;;;;1.50;0.72;;;;;;;20.53;58.46;99706.59;1712147;82;20998;-66
2022/07/09 11:34:53;;;;;;;1.90;0.85;;;;;;;20.40;58.55;99708.12;1682164;83;21089;-65
2022/07/09 11:37:27;;;;;;;3.40;0.95;;;;;;;20.16;58.09;99714.25;1711226;83;21107;-67
2022/07/09 11:39:56;;;;;;;2.87;0.62;;;;;;;19.86;58.08;99722.09;1717118;82;21696;-64
2022/07/09 11:42:23;;;;;;;2.95;0.95;;;;;;;19.41;57.34;99728.97;1706895;83;20999;-67
2022/07/09 11:45:00;;;;;;;3.50;0.78;;;;;;;19.09;58.11;99714.44;1709316;83;21005;-65
2022/07/09 11:47:35;;;;;;;;;;;;;;;19.03;58.25;99724.70;1714450;83;20950;-64
2022/07/09 11:50:11;;;;;;;1.60;0.80;;;;;;;18.78;58.03;99717.45;1710887;82;20121;-66
2022/07/09 11:52:47;;;;;;;3.22;1.00;;;;;;;18.58;58.40;99720.84;1709559;83;21114;-66